Aérodrome :







RETROUVEZ-NOUS SUR...

 
LOGIN :

S'inscrire | Disclaimer

   EN    FR    IT 

 









Légende :    VFR   VFR Marginal   IFR   IFR Intensif   IFR Très Intensif
Visi : 
Plafond : 
>= 8 km
>= 3000ft
5 à 8 km
1000 à 3000 ft
1500m à 5 km
500 à 1000 ft
800 à 1500m
200 à 500 ft
< 800m
< 200 ft
Symboles :   Orages  Brouillard  Fortes neiges  Fortes précipitations  Vent > 20 kt







- Altitude de l'aérodrome : 244 ft
- Code IATA : YQB


CYQB - Quebec - Jean Lesage Int.

DERNIER METAR :
  • 251200Z 05004KT 30SM FEW240 13/08 A3042 RMK CI1 CI TR SLP303

METARs EXPIRÉS :
  • 251100Z 02005KT 30SM FEW240 11/07 A3040 RMK CI1 CI TR CONTRAILS SLP299

TAF TAF CYQB
Valide du 25 à 12h jusqu'au 26 à 12h UTC


251138Z 2512/2612 03005KT P6SM FEW240
FM251400 09006KT P6SM SKC
BECMG 2522/2524 02006KT RMK NXT FCST BY 251800Z
ATIS : ENG : +1 418-871-6893 FRA : +1 418-871-6895
Pas de NOTAMs connus pour ce terrain.



MET'MAP, la Météo Aéronautique d'un coup d'oeil ! - Copyright ORBIFLY Décembre 2007 - Disclaimer

ORBIFLY MET'MAP TEAM :

Programmation & Développement : Alexandra Zaïnal
Conception & Développement : Baudouin d'Aumeries
Co-Programmation & Développement : Marc-Olivier Méhu
Soutien technique & logistique : Manuel Goepfert

Contact : metmap@orbifly.com




SOURCES & CREDITS :

   NOAA